Terminal Aerodrome Forecast
Issued by NWS

Home | Current Version | Previous Version | Text Only | Print | Product List | Glossary Off
Versions: 1 2 3 4 5 6 7 8 9 10 11 12 13 14 15 16 17

135
FTUS43 KABR 091735
TAFPIR
TAF
KPIR 091735Z 0918/1018 22006KT P6SM BKN070
     FM100100 12005KT 3SM BR OVC009
     FM100900 14006KT 3SM BR OVC007
     FM101400 11006KT 6SM BR OVC009=

USA.gov is the U.S. government's official web portal to all federal, state and local government web resources and services.